Paso Robles Municipal Airport Paso Robles US
ICAO: KPRB
IATA: PRB
Category: Medium
Scheduled Services: No

Elevation: 840 ft
TransAlt. 18000 ft.

Airport Communications:
ASOS:132.175
OAKLAND CNTR:128.7
HAWTHORNE RDO:122.4
CTAF/UNICOM:123

KPRB Zoom In..

If you have problems with the map follow the link
https://www.worldairports.se/pages/airport.php?
ICAO=KPRB

Runways:

(A) RW 01 length 6008 ft width 150 ft
---- / hdg 14

(B) RW 13 length 4701 ft width 100 ft
---- / hdg 129

(C) RW 19 length 6008 ft width 150 ft
---- / hdg 194

(D) RW 31 length 4701 ft width 100 ft
---- / hdg 309

Location; KPRB
Day. 21 / Time. 04.53 Zulu
* Altimeter: 29.96
* Temperature: 17° c. 62.6°f.
* Wind from: 000° Speed 00 kn.
Dewpoint: 01° c.
Visibility: 10 Statute Miles.
Clouds: Clear (automated report).

KPRB 210453Z AUTO 00000KT 10SM CLR 17/01 A2996 RMK AO2 SLP142 T01670011


Wind - Calm.

 
 
jpsmedia.com for Web Design worldairports.se 2018   terms of use